Time;durP1;ratioP1;P1;durP2;ratioP2;P2;SDS_P1;SDS_P2;PMS_P1;PMS_P2;Temp;Humidity;BMP_temperature;BMP_pressure;BME280_temperature;BME280_humidity;BME280_pressure;Samples;Min_cycle;Max_cycle;Signal;HPM_P1;HPM_P2
2021/06/16 00:00:16;;;;;;;2.15;0.90;;;;;;;;;;5095031;28;20520;-76
2021/06/16 00:02:42;;;;;;;2.10;1.00;;;;;;;;;;5095212;28;20511;-76
2021/06/16 00:05:09;;;;;;;2.40;1.08;;;;;;;;;;5078200;28;20067;-76
2021/06/16 00:07:34;;;;;;;1.80;1.02;;;;;;;;;;5095396;28;20115;-76
2021/06/16 00:10:00;;;;;;;2.55;1.13;;;;;;;;;;5081017;28;20032;-76
2021/06/16 00:12:26;;;;;;;2.55;1.00;;;;;;;;;;5102643;28;20563;-75
2021/06/16 00:14:53;;;;;;;1.55;0.80;;;;;;;;;;5093622;28;20130;-76
2021/06/16 00:17:18;;;;;;;2.10;1.00;;;;;;;;;;5103668;28;20020;-75
2021/06/16 00:19:44;;;;;;;1.92;0.93;;;;;;;;;;5074500;28;20032;-76
2021/06/16 00:22:09;;;;;;;1.67;0.80;;;;;;;;;;5074766;28;20024;-76
2021/06/16 00:24:35;;;;;;;1.90;0.70;;;;;;;;;;5076458;27;20100;-76
2021/06/16 00:27:00;;;;;;;1.50;0.70;;;;;;;;;;5120689;27;20038;-75
2021/06/16 00:29:26;;;;;;;2.63;0.82;;;;;;;;;;5094313;28;20042;-76
2021/06/16 00:31:51;;;;;;;2.25;0.80;;;;;;;;;;5077683;28;20039;-76
2021/06/16 00:34:17;;;;;;;1.75;0.60;;;;;;;;;;5111611;28;20115;-76
2021/06/16 00:36:42;;;;;;;1.50;0.85;;;;;;;;;;5094552;28;20026;-76
2021/06/16 00:39:08;;;;;;;1.45;0.80;;;;;;;;;;5094188;28;20122;-76
2021/06/16 00:41:34;;;;;;;2.72;1.30;;;;;;;;;;5093948;28;20038;-75
2021/06/16 00:43:59;;;;;;;2.25;1.10;;;;;;;;;;5094435;28;20374;-76
2021/06/16 00:46:25;;;;;;;2.47;0.68;;;;;;;;;;5077172;28;20042;-76
2021/06/16 00:48:50;;;;;;;1.52;0.70;;;;;;;;;;5094066;28;20027;-76
2021/06/16 00:51:16;;;;;;;2.58;1.13;;;;;;;;;;5094289;28;20028;-76
2021/06/16 00:53:41;;;;;;;1.17;0.57;;;;;;;;;;5093632;28;20031;-76
2021/06/16 00:56:07;;;;;;;2.85;1.00;;;;;;;;;;5094321;28;20034;-75
2021/06/16 00:58:32;;;;;;;1.98;1.00;;;;;;;;;;5076384;28;20039;-76
2021/06/16 01:01:11;;;;;;;1.08;0.70;;;;;;;;;;5076761;28;20034;-76
2021/06/16 01:03:42;;;;;;;1.90;0.90;;;;;;;;;;5077961;28;20102;-75
2021/06/16 01:06:30;;;;;;;1.42;0.65;;;;;;;;;;5112310;28;20039;-76
2021/06/16 01:09:11;;;;;;;1.80;0.60;;;;;;;;;;5093749;28;20043;-76
2021/06/16 01:12:20;;;;;;;1.77;0.75;;;;;;;;;;5093830;28;20031;-75
2021/06/16 01:14:53;;;;;;;2.28;0.80;;;;;;;;;;5059671;28;20084;-76
2021/06/16 01:17:24;;;;;;;2.20;0.65;;;;;;;;;;5087980;28;20051;-76
2021/06/16 01:19:59;;;;;;;2.22;0.80;;;;;;;;;;5094889;28;20084;-76
2021/06/16 01:22:40;;;;;;;1.50;0.70;;;;;;;;;;5111404;28;20046;-76
2021/06/16 01:25:10;;;;;;;2.60;1.00;;;;;;;;;;5124774;27;20031;-76
2021/06/16 01:27:36;;;;;;;1.17;0.63;;;;;;;;;;5089321;28;20031;-76
2021/06/16 01:30:03;;;;;;;1.17;0.70;;;;;;;;;;5080855;28;20024;-76
2021/06/16 01:32:28;;;;;;;1.85;0.73;;;;;;;;;;5098436;28;20023;-76
2021/06/16 01:34:54;;;;;;;2.67;0.80;;;;;;;;;;5080541;28;20100;-75
2021/06/16 01:37:19;;;;;;;1.63;0.75;;;;;;;;;;5080945;28;20032;-76
2021/06/16 01:39:45;;;;;;;1.20;0.70;;;;;;;;;;5080719;28;20057;-76
2021/06/16 01:42:12;;;;;;;1.77;0.70;;;;;;;;;;5097390;28;20028;-75
2021/06/16 01:44:37;;;;;;;2.95;1.02;;;;;;;;;;5097378;28;20031;-76
2021/06/16 01:47:03;;;;;;;1.55;0.73;;;;;;;;;;5097843;28;20035;-75
2021/06/16 01:49:29;;;;;;;2.10;0.90;;;;;;;;;;5080614;28;20045;-76
2021/06/16 01:51:54;;;;;;;1.77;0.88;;;;;;;;;;5097476;28;20492;-75
2021/06/16 01:54:20;;;;;;;1.77;0.73;;;;;;;;;;5080559;28;20019;-76
2021/06/16 01:56:46;;;;;;;1.50;0.60;;;;;;;;;;5079407;28;20031;-76
2021/06/16 01:59:11;;;;;;;1.83;0.93;;;;;;;;;;5080302;28;20038;-76
2021/06/16 02:01:37;;;;;;;1.83;0.80;;;;;;;;;;5114125;28;20035;-76
2021/06/16 02:04:02;;;;;;;1.80;0.55;;;;;;;;;;5097469;28;20024;-75
2021/06/16 02:06:30;;;;;;;1.77;0.85;;;;;;;;;;5080438;28;20033;-75
2021/06/16 02:08:55;;;;;;;1.60;0.60;;;;;;;;;;5079999;28;20040;-75
2021/06/16 02:11:21;;;;;;;2.53;0.90;;;;;;;;;;5097412;28;20455;-75
2021/06/16 02:13:54;;;;;;;1.77;1.13;;;;;;;;;;5080232;28;20024;-75
2021/06/16 02:16:55;;;;;;;1.40;0.52;;;;;;;;;;5080348;28;20386;-75
2021/06/16 02:19:22;;;;;;;1.70;0.80;;;;;;;;;;5098380;28;20104;-76
2021/06/16 02:21:47;;;;;;;1.33;0.65;;;;;;;;;;5093527;28;20036;-76
2021/06/16 02:24:13;;;;;;;1.73;0.73;;;;;;;;;;5086543;27;20380;-76
2021/06/16 02:26:39;;;;;;;1.83;0.70;;;;;;;;;;5117275;27;20038;-76
2021/06/16 02:29:10;;;;;;;1.30;0.60;;;;;;;;;;5100735;28;20043;-76
2021/06/16 02:31:36;;;;;;;2.40;1.00;;;;;;;;;;5063650;28;20080;-75
2021/06/16 02:34:02;;;;;;;2.50;0.77;;;;;;;;;;5095505;28;20031;-76
2021/06/16 02:36:28;;;;;;;2.60;0.80;;;;;;;;;;5097162;28;20035;-76
2021/06/16 02:38:58;;;;;;;1.30;0.68;;;;;;;;;;5095521;28;20040;-76
2021/06/16 02:41:23;;;;;;;1.17;0.50;;;;;;;;;;5096764;28;20038;-76
2021/06/16 02:43:49;;;;;;;2.28;1.00;;;;;;;;;;5096532;28;20389;-75
2021/06/16 02:46:15;;;;;;;1.65;0.82;;;;;;;;;;5096812;28;20493;-76
2021/06/16 02:48:42;;;;;;;1.90;0.60;;;;;;;;;;5095581;28;20102;-76
2021/06/16 02:51:08;;;;;;;1.83;0.68;;;;;;;;;;5092449;28;20105;-75
2021/06/16 02:53:33;;;;;;;2.45;1.08;;;;;;;;;;5067649;28;20423;-75
2021/06/16 02:56:01;;;;;;;2.55;0.75;;;;;;;;;;5079483;28;20478;-76
2021/06/16 02:58:26;;;;;;;1.70;0.50;;;;;;;;;;5112450;28;20028;-76
2021/06/16 03:00:55;;;;;;;2.13;0.90;;;;;;;;;;5096019;28;20035;-76
2021/06/16 03:03:21;;;;;;;1.50;0.70;;;;;;;;;;5095414;28;20506;-76
2021/06/16 03:05:48;;;;;;;2.80;0.77;;;;;;;;;;5075809;28;20040;-75
2021/06/16 03:08:13;;;;;;;2.13;1.10;;;;;;;;;;5059138;28;20028;-76
2021/06/16 03:10:39;;;;;;;2.90;1.45;;;;;;;;;;5075775;28;20028;-76
2021/06/16 03:13:05;;;;;;;2.65;0.98;;;;;;;;;;5070775;28;20039;-76
2021/06/16 03:15:30;;;;;;;2.63;0.90;;;;;;;;;;5095660;28;20036;-76
2021/06/16 03:17:55;;;;;;;1.98;0.82;;;;;;;;;;5095572;28;20031;-76
2021/06/16 03:20:23;;;;;;;1.88;0.70;;;;;;;;;;5075298;28;20038;-76
2021/06/16 03:22:49;;;;;;;4.35;1.17;;;;;;;;;;5110044;28;20039;-76
2021/06/16 03:25:14;;;;;;;2.60;0.93;;;;;;;;;;5105673;27;20038;-76
2021/06/16 03:27:40;;;;;;;2.50;0.90;;;;;;;;;;5116367;27;20353;-75
2021/06/16 03:30:07;;;;;;;5.95;1.30;;;;;;;;;;5100528;28;20027;-76
2021/06/16 03:32:32;;;;;;;2.28;1.15;;;;;;;;;;5078747;28;20063;-76
2021/06/16 03:34:58;;;;;;;2.10;0.80;;;;;;;;;;5078878;28;20088;-76
2021/06/16 03:37:23;;;;;;;3.03;1.30;;;;;;;;;;5095621;28;20028;-76
2021/06/16 03:39:49;;;;;;;2.45;1.08;;;;;;;;;;5095446;28;20032;-76
2021/06/16 03:42:15;;;;;;;2.00;1.10;;;;;;;;;;5078687;28;20065;-75
2021/06/16 03:44:41;;;;;;;1.55;0.90;;;;;;;;;;5094858;28;20035;-76
2021/06/16 03:47:06;;;;;;;2.72;0.93;;;;;;;;;;5094503;28;20059;-75
2021/06/16 03:49:32;;;;;;;2.78;1.10;;;;;;;;;;5094735;28;20036;-75
2021/06/16 03:51:57;;;;;;;2.22;1.33;;;;;;;;;;5095270;28;20389;-75
2021/06/16 03:54:24;;;;;;;4.13;1.13;;;;;;;;;;5095314;28;20032;-76
2021/06/16 03:56:50;;;;;;;2.25;0.93;;;;;;;;;;5095140;28;20032;-76
2021/06/16 03:59:16;;;;;;;2.83;1.40;;;;;;;;;;5094784;28;20103;-75
2021/06/16 04:01:41;;;;;;;4.03;1.70;;;;;;;;;;5073546;28;20111;-76
2021/06/16 04:04:07;;;;;;;3.72;1.30;;;;;;;;;;5058764;28;20048;-76
2021/06/16 04:06:33;;;;;;;1.42;0.80;;;;;;;;;;5091625;28;20020;-75
2021/06/16 04:08:59;;;;;;;2.78;0.80;;;;;;;;;;5091193;28;20106;-76
2021/06/16 04:11:24;;;;;;;2.35;1.25;;;;;;;;;;5060156;28;20034;-76
2021/06/16 04:13:49;;;;;;;3.28;1.35;;;;;;;;;;5091240;28;20036;-75
2021/06/16 04:16:15;;;;;;;3.17;1.10;;;;;;;;;;5073818;28;20024;-76
2021/06/16 04:18:41;;;;;;;2.38;1.00;;;;;;;;;;5091531;28;20059;-76
2021/06/16 04:21:06;;;;;;;4.97;1.60;;;;;;;;;;5075090;28;20111;-76
2021/06/16 04:23:32;;;;;;;4.00;1.98;;;;;;;;;;5092739;28;20092;-76
2021/06/16 04:25:57;;;;;;;2.75;1.20;;;;;;;;;;5132244;27;20027;-76
2021/06/16 04:28:23;;;;;;;1.65;0.95;;;;;;;;;;5101453;28;20493;-76
2021/06/16 04:30:48;;;;;;;2.90;1.10;;;;;;;;;;5094184;28;20028;-75
2021/06/16 04:33:14;;;;;;;3.65;1.25;;;;;;;;;;5077226;28;20047;-76
2021/06/16 04:35:39;;;;;;;4.30;1.00;;;;;;;;;;5094765;28;20052;-76
2021/06/16 04:38:05;;;;;;;3.60;0.90;;;;;;;;;;5094723;28;20040;-76
2021/06/16 04:40:30;;;;;;;4.07;1.05;;;;;;;;;;5093804;28;20111;-76
2021/06/16 04:42:56;;;;;;;4.72;1.00;;;;;;;;;;5073989;28;20039;-75
2021/06/16 04:45:21;;;;;;;2.47;1.00;;;;;;;;;;5056973;28;20039;-76
2021/06/16 04:47:47;;;;;;;2.30;1.10;;;;;;;;;;5074754;28;20032;-75
2021/06/16 04:50:13;;;;;;;2.53;0.93;;;;;;;;;;5077430;28;20431;-75
2021/06/16 04:52:39;;;;;;;2.83;1.02;;;;;;;;;;5094231;28;20035;-76
2021/06/16 04:55:06;;;;;;;2.95;1.20;;;;;;;;;;5094157;28;20043;-76
2021/06/16 04:57:31;;;;;;;4.68;1.48;;;;;;;;;;5077469;28;20028;-76
2021/06/16 04:59:57;;;;;;;2.53;1.15;;;;;;;;;;5093180;28;20491;-76
2021/06/16 05:02:22;;;;;;;3.78;1.52;;;;;;;;;;5077059;28;20027;-75
2021/06/16 05:04:48;;;;;;;2.88;1.08;;;;;;;;;;5093768;28;20028;-76
2021/06/16 05:07:14;;;;;;;2.30;1.40;;;;;;;;;;5093570;28;20035;-76
2021/06/16 05:09:39;;;;;;;4.07;1.30;;;;;;;;;;5050746;28;20044;-76
2021/06/16 05:12:07;;;;;;;4.07;1.90;;;;;;;;;;5057419;28;20395;-76
2021/06/16 05:14:32;;;;;;;4.97;2.20;;;;;;;;;;5088440;28;20028;-76
2021/06/16 05:16:58;;;;;;;5.30;2.30;;;;;;;;;;5070118;28;20481;-76
2021/06/16 05:19:24;;;;;;;3.85;2.15;;;;;;;;;;5094049;28;20036;-76
2021/06/16 05:21:49;;;;;;;9.63;2.78;;;;;;;;;;5076992;28;20088;-76
2021/06/16 05:24:15;;;;;;;4.75;1.98;;;;;;;;;;5094898;28;20032;-76
2021/06/16 05:26:41;;;;;;;5.57;2.15;;;;;;;;;;5090199;28;20065;-76
2021/06/16 05:29:06;;;;;;;4.50;2.30;;;;;;;;;;5056451;28;20485;-76
2021/06/16 05:31:32;;;;;;;4.65;2.20;;;;;;;;;;5087367;28;20040;-76
2021/06/16 05:33:58;;;;;;;6.38;2.55;;;;;;;;;;5073862;28;20032;-76
2021/06/16 05:36:24;;;;;;;4.05;2.05;;;;;;;;;;5092683;28;20035;-76
2021/06/16 05:38:49;;;;;;;5.40;2.28;;;;;;;;;;5073340;28;20040;-76
2021/06/16 05:41:15;;;;;;;6.00;2.08;;;;;;;;;;5086385;28;20037;-76
2021/06/16 05:43:43;;;;;;;3.88;2.30;;;;;;;;;;5093735;28;20032;-76
2021/06/16 05:46:10;;;;;;;4.78;2.17;;;;;;;;;;5077180;28;20481;-76
2021/06/16 05:48:35;;;;;;;5.45;2.67;;;;;;;;;;5076837;28;20085;-76
2021/06/16 05:51:01;;;;;;;4.95;2.17;;;;;;;;;;5093765;28;20027;-76
2021/06/16 05:53:26;;;;;;;5.63;2.30;;;;;;;;;;5093792;28;20032;-76
2021/06/16 05:55:52;;;;;;;4.40;2.20;;;;;;;;;;5064055;28;20040;-75
2021/06/16 05:58:18;;;;;;;6.63;2.22;;;;;;;;;;5089920;28;20097;-76
2021/06/16 06:00:43;;;;;;;5.60;2.40;;;;;;;;;;5078951;28;20115;-77
2021/06/16 06:03:09;;;;;;;7.18;2.75;;;;;;;;;;5059925;28;20023;-76
2021/06/16 06:05:34;;;;;;;4.32;2.30;;;;;;;;;;5076427;28;20473;-76
2021/06/16 06:08:00;;;;;;;6.85;2.35;;;;;;;;;;5093441;28;20031;-76
2021/06/16 06:10:25;;;;;;;5.75;2.78;;;;;;;;;;5076062;28;20109;-76
2021/06/16 06:12:51;;;;;;;6.50;2.67;;;;;;;;;;5077016;28;20104;-76
2021/06/16 06:15:16;;;;;;;6.65;2.97;;;;;;;;;;5079861;28;20036;-76
2021/06/16 06:17:43;;;;;;;6.40;2.72;;;;;;;;;;5078072;28;20434;-76
2021/06/16 06:20:10;;;;;;;4.78;2.50;;;;;;;;;;5097305;28;20039;-76
2021/06/16 06:22:35;;;;;;;6.57;3.63;;;;;;;;;;5079427;28;20039;-76
2021/06/16 06:25:01;;;;;;;5.35;2.92;;;;;;;;;;5076334;28;20040;-76
2021/06/16 06:27:26;;;;;;;3.35;2.03;;;;;;;;;;5075814;28;20036;-76
2021/06/16 06:29:52;;;;;;;5.10;2.20;;;;;;;;;;5074198;28;20033;-76
2021/06/16 06:32:18;;;;;;;7.03;2.33;;;;;;;;;;5075944;28;20097;-76
2021/06/16 06:34:43;;;;;;;5.43;2.10;;;;;;;;;;5066513;28;20035;-76
2021/06/16 06:37:09;;;;;;;4.97;1.98;;;;;;;;;;5079922;28;20023;-76
2021/06/16 06:39:35;;;;;;;5.03;2.63;;;;;;;;;;5096487;28;20071;-76
2021/06/16 06:42:00;;;;;;;6.35;3.58;;;;;;;;;;5078949;28;20032;-76
2021/06/16 06:44:26;;;;;;;11.15;5.40;;;;;;;;;;5079367;28;20047;-77
2021/06/16 06:46:51;;;;;;;10.13;6.30;;;;;;;;;;5079104;28;20139;-76
2021/06/16 06:49:17;;;;;;;9.52;6.38;;;;;;;;;;5076326;28;20119;-76
2021/06/16 06:51:43;;;;;;;11.65;7.43;;;;;;;;;;5086704;28;20501;-77
2021/06/16 06:54:08;;;;;;;11.38;7.60;;;;;;;;;;5079527;28;20031;-76
2021/06/16 06:56:37;;;;;;;12.45;8.38;;;;;;;;;;5095708;28;20063;-76
2021/06/16 06:59:03;;;;;;;16.38;10.25;;;;;;;;;;5112192;28;20028;-76
2021/06/16 07:01:29;;;;;;;14.02;9.05;;;;;;;;;;5096473;28;20374;-76
2021/06/16 07:03:54;;;;;;;12.70;9.60;;;;;;;;;;5079459;28;20106;-76
2021/06/16 07:06:20;;;;;;;15.05;9.95;;;;;;;;;;5075437;28;20031;-76
2021/06/16 07:08:45;;;;;;;14.85;9.18;;;;;;;;;;5104111;28;20055;-77
2021/06/16 07:11:11;;;;;;;15.48;9.05;;;;;;;;;;5092030;28;20016;-76
2021/06/16 07:13:36;;;;;;;12.75;7.75;;;;;;;;;;5058538;28;20040;-77
2021/06/16 07:16:02;;;;;;;13.02;8.38;;;;;;;;;;5080298;28;20059;-77
2021/06/16 07:18:27;;;;;;;12.93;6.93;;;;;;;;;;5092403;28;20059;-77
2021/06/16 07:20:53;;;;;;;12.65;6.65;;;;;;;;;;5075604;28;20020;-77
2021/06/16 07:23:19;;;;;;;11.60;6.55;;;;;;;;;;5063545;28;20102;-77
2021/06/16 07:25:44;;;;;;;9.00;5.60;;;;;;;;;;5062047;28;20031;-76
2021/06/16 07:28:10;;;;;;;11.27;5.88;;;;;;;;;;5078483;28;20032;-76
2021/06/16 07:30:35;;;;;;;8.32;5.13;;;;;;;;;;5095285;28;20423;-76
2021/06/16 07:33:02;;;;;;;9.05;4.50;;;;;;;;;;5091947;28;20114;-77
2021/06/16 07:35:27;;;;;;;9.20;5.20;;;;;;;;;;5075467;28;20115;-76
2021/06/16 07:37:53;;;;;;;8.02;4.43;;;;;;;;;;5069954;28;20028;-77
2021/06/16 07:40:20;;;;;;;6.90;4.70;;;;;;;;;;5078550;28;20032;-77
2021/06/16 07:42:46;;;;;;;6.38;3.97;;;;;;;;;;5074846;28;20055;-77
2021/06/16 07:45:12;;;;;;;8.68;4.05;;;;;;;;;;5076061;28;20031;-77
2021/06/16 07:47:37;;;;;;;10.20;3.85;;;;;;;;;;5095194;28;20156;-77
2021/06/16 07:50:04;;;;;;;7.32;3.80;;;;;;;;;;5058401;28;20024;-77
2021/06/16 07:52:29;;;;;;;7.38;3.63;;;;;;;;;;5075034;28;20024;-77
2021/06/16 07:54:55;;;;;;;7.15;4.60;;;;;;;;;;5058952;28;20157;-77
2021/06/16 07:57:20;;;;;;;5.78;3.28;;;;;;;;;;5061178;28;20114;-78
2021/06/16 07:59:46;;;;;;;14.82;4.22;;;;;;;;;;5078333;28;20153;-78
2021/06/16 08:02:11;;;;;;;13.15;3.72;;;;;;;;;;5078373;28;20039;-77
2021/06/16 08:04:40;;;;;;;11.00;4.32;;;;;;;;;;5095026;28;20036;-77
2021/06/16 08:07:10;;;;;;;15.10;7.25;;;;;;;;;;5095853;28;20062;-77
2021/06/16 08:09:41;;;;;;;15.05;8.88;;;;;;;;;;5078582;28;20039;-77
2021/06/16 08:12:09;;;;;;;15.48;10.55;;;;;;;;;;5058753;28;20047;-77
2021/06/16 08:14:34;;;;;;;13.50;9.77;;;;;;;;;;5074566;28;20039;-77
2021/06/16 08:17:00;;;;;;;12.98;5.90;;;;;;;;;;5080169;28;20106;-78
2021/06/16 08:19:25;;;;;;;10.07;4.93;;;;;;;;;;5071924;28;20470;-78
2021/06/16 08:21:51;;;;;;;6.82;4.10;;;;;;;;;;5057724;28;20024;-78
2021/06/16 08:24:16;;;;;;;6.80;3.92;;;;;;;;;;5090916;28;20066;-78
2021/06/16 08:26:42;;;;;;;9.85;4.30;;;;;;;;;;5074463;28;20036;-78
2021/06/16 08:29:07;;;;;;;8.80;5.03;;;;;;;;;;5074050;28;20054;-78
2021/06/16 08:31:33;;;;;;;11.82;6.10;;;;;;;;;;5084557;28;20032;-78
2021/06/16 08:33:58;;;;;;;9.02;4.93;;;;;;;;;;5077332;28;20028;-78
2021/06/16 08:36:24;;;;;;;11.63;4.75;;;;;;;;;;5093670;28;20023;-79
2021/06/16 08:38:49;;;;;;;8.93;5.85;;;;;;;;;;5077436;28;20112;-78
2021/06/16 08:41:15;;;;;;;14.95;6.38;;;;;;;;;;5094632;28;20046;-78
2021/06/16 08:43:42;;;;;;;13.55;5.60;;;;;;;;;;5077034;28;20026;-76
2021/06/16 08:46:12;;;;;;;12.27;5.32;;;;;;;;;;5111153;28;20489;-76
2021/06/16 08:48:37;;;;;;;15.40;6.93;;;;;;;;;;5093916;28;20449;-76
2021/06/16 08:51:04;;;;;;;11.23;5.70;;;;;;;;;;5076788;28;20059;-76
2021/06/16 08:53:30;;;;;;;13.52;5.43;;;;;;;;;;5077348;28;20110;-76
2021/06/16 08:55:55;;;;;;;11.25;5.65;;;;;;;;;;5094467;28;20102;-76
2021/06/16 08:58:21;;;;;;;10.40;4.97;;;;;;;;;;5093303;28;20165;-76
2021/06/16 09:00:46;;;;;;;10.57;5.50;;;;;;;;;;5088900;28;20024;-76
2021/06/16 09:03:12;;;;;;;12.05;5.78;;;;;;;;;;5083952;28;20043;-76
2021/06/16 09:05:38;;;;;;;13.13;5.75;;;;;;;;;;5073913;28;20039;-76
2021/06/16 09:08:18;;;;;;;9.88;5.53;;;;;;;;;;5076846;28;20043;-76
2021/06/16 09:10:45;;;;;;;13.05;6.38;;;;;;;;;;5094020;28;20092;-76
2021/06/16 09:13:11;;;;;;;14.68;5.75;;;;;;;;;;5076974;28;20035;-76
2021/06/16 09:15:38;;;;;;;10.35;5.60;;;;;;;;;;5093703;28;20081;-76
2021/06/16 09:18:08;;;;;;;9.32;5.97;;;;;;;;;;5092480;28;20032;-76
2021/06/16 09:20:42;;;;;;;9.48;5.38;;;;;;;;;;5095784;28;20023;-75
2021/06/16 09:23:21;;;;;;;13.30;6.47;;;;;;;;;;5057532;28;20039;-76
2021/06/16 09:26:09;;;;;;;11.05;5.68;;;;;;;;;;5106677;28;20055;-76
2021/06/16 09:28:36;;;;;;;11.35;5.60;;;;;;;;;;5089891;28;20093;-76
2021/06/16 09:31:02;;;;;;;9.57;5.40;;;;;;;;;;5064608;28;20031;-76
2021/06/16 09:33:27;;;;;;;8.80;5.88;;;;;;;;;;5060175;28;20024;-76
2021/06/16 09:35:53;;;;;;;9.63;5.75;;;;;;;;;;5093858;28;20032;-76
2021/06/16 09:38:24;;;;;;;10.30;6.90;;;;;;;;;;5093772;28;20031;-75
2021/06/16 09:40:50;;;;;;;11.60;6.97;;;;;;;;;;5106798;28;20028;-75
2021/06/16 09:43:17;;;;;;;9.80;7.03;;;;;;;;;;5072872;28;20472;-76
2021/06/16 09:45:45;;;;;;;11.38;6.70;;;;;;;;;;5062743;28;20123;-76
2021/06/16 09:48:34;;;;;;;10.55;6.05;;;;;;;;;;5097213;28;20039;-76
2021/06/16 09:51:24;;;;;;;9.23;5.57;;;;;;;;;;5078683;28;20031;-76
2021/06/16 09:54:19;;;;;;;7.82;4.80;;;;;;;;;;5095103;28;20043;-76
2021/06/16 09:56:58;;;;;;;11.18;5.60;;;;;;;;;;5077981;28;20088;-76
2021/06/16 09:59:45;;;;;;;8.52;5.00;;;;;;;;;;5097243;28;20027;-76
2021/06/16 10:02:18;;;;;;;6.70;4.60;;;;;;;;;;5064489;28;20016;-76
2021/06/16 10:04:49;;;;;;;5.70;4.45;;;;;;;;;;5096815;28;20046;-76
2021/06/16 10:07:22;;;;;;;5.23;4.27;;;;;;;;;;5098063;28;20031;-76
2021/06/16 10:09:54;;;;;;;6.30;4.28;;;;;;;;;;5096592;28;20039;-76
2021/06/16 10:12:21;;;;;;;4.85;4.25;;;;;;;;;;5114104;28;20485;-76
2021/06/16 10:14:47;;;;;;;6.13;4.40;;;;;;;;;;5097083;28;20042;-76
2021/06/16 10:17:15;;;;;;;5.45;3.78;;;;;;;;;;5104808;27;20055;-77
2021/06/16 10:19:41;;;;;;;6.15;4.32;;;;;;;;;;5101452;27;20436;-77
2021/06/16 10:22:07;;;;;;;7.72;4.35;;;;;;;;;;5093098;28;20040;-77
2021/06/16 10:24:32;;;;;;;5.95;3.90;;;;;;;;;;5076738;28;20027;-77
2021/06/16 10:26:59;;;;;;;4.80;3.78;;;;;;;;;;5080132;28;20034;-77
2021/06/16 10:29:48;;;;;;;7.60;4.07;;;;;;;;;;5092993;28;20050;-77
2021/06/16 10:32:14;;;;;;;5.18;4.15;;;;;;;;;;5082200;28;20039;-77
2021/06/16 10:34:51;;;;;;;4.22;3.65;;;;;;;;;;5079860;28;20098;-76
2021/06/16 10:37:37;;;;;;;7.97;5.00;;;;;;;;;;5113976;28;20070;-76
2021/06/16 10:40:18;;;;;;;5.18;4.60;;;;;;;;;;5096884;28;20093;-77
2021/06/16 10:43:01;;;;;;;5.28;3.65;;;;;;;;;;5113194;28;20052;-76
2021/06/16 10:45:30;;;;;;;6.15;3.75;;;;;;;;;;5114711;28;20036;-77
2021/06/16 10:48:05;;;;;;;7.75;4.40;;;;;;;;;;5079285;28;20034;-77
2021/06/16 10:50:45;;;;;;;4.85;3.70;;;;;;;;;;5079543;28;20046;-77
2021/06/16 10:53:15;;;;;;;5.25;3.00;;;;;;;;;;5114568;28;20038;-77
2021/06/16 10:55:53;;;;;;;4.65;4.00;;;;;;;;;;5080225;28;20484;-76
2021/06/16 10:58:25;;;;;;;5.85;3.70;;;;;;;;;;5113292;28;20024;-75
2021/06/16 11:01:12;;;;;;;7.90;4.97;;;;;;;;;;5097375;28;20040;-76
2021/06/16 11:03:47;;;;;;;9.77;7.13;;;;;;;;;;5113997;28;20516;-75
2021/06/16 11:06:36;;;;;;;9.50;7.78;;;;;;;;;;5097429;28;20055;-76
2021/06/16 11:09:03;;;;;;;10.20;6.18;;;;;;;;;;5098206;28;20027;-76
2021/06/16 11:11:50;;;;;;;6.30;5.00;;;;;;;;;;5079227;28;20020;-77
2021/06/16 11:14:34;;;;;;;5.53;4.38;;;;;;;;;;5114610;28;20485;-77
2021/06/16 11:17:04;;;;;;;5.40;4.35;;;;;;;;;;5101748;27;20038;-77
2021/06/16 11:19:35;;;;;;;4.53;3.60;;;;;;;;;;5094536;28;20505;-77
2021/06/16 11:22:04;;;;;;;6.72;3.47;;;;;;;;;;5112287;28;20421;-77
2021/06/16 11:25:07;;;;;;;6.28;3.90;;;;;;;;;;5078936;28;20032;-77
2021/06/16 11:27:54;;;;;;;5.00;4.07;;;;;;;;;;5114185;28;20035;-77
2021/06/16 11:30:43;;;;;;;4.72;3.70;;;;;;;;;;5113510;28;20020;-78
2021/06/16 11:33:12;;;;;;;5.97;3.95;;;;;;;;;;5112916;28;20070;-78
2021/06/16 11:36:02;;;;;;;5.60;3.53;;;;;;;;;;5113980;27;20032;-78
2021/06/16 11:38:29;;;;;;;8.40;4.35;;;;;;;;;;5081222;28;20031;-78
2021/06/16 11:41:11;;;;;;;7.20;4.68;;;;;;;;;;5095847;28;20540;-78
2021/06/16 11:43:39;;;;;;;5.22;3.88;;;;;;;;;;5079213;28;20063;-78
2021/06/16 11:46:11;;;;;;;5.70;3.75;;;;;;;;;;5078996;28;20032;-79
2021/06/16 11:48:36;;;;;;;6.57;4.55;;;;;;;;;;5094459;28;20027;-78
2021/06/16 11:51:02;;;;;;;6.13;4.03;;;;;;;;;;5092648;28;20073;-78
2021/06/16 11:53:30;;;;;;;4.78;3.60;;;;;;;;;;5074779;28;20024;-78
2021/06/16 11:55:55;;;;;;;4.70;3.30;;;;;;;;;;5078604;28;20032;-79
2021/06/16 11:58:28;;;;;;;4.57;3.50;;;;;;;;;;5094122;28;20084;-79
2021/06/16 12:01:02;;;;;;;6.25;3.95;;;;;;;;;;5095394;28;20034;-79
2021/06/16 12:03:28;;;;;;;4.63;3.25;;;;;;;;;;5095021;28;20070;-79
2021/06/16 12:06:20;;;;;;;5.53;3.95;;;;;;;;;;5078601;28;20083;-79
2021/06/16 12:08:45;;;;;;;6.13;3.42;;;;;;;;;;5106910;28;20078;-79
2021/06/16 12:11:21;;;;;;;5.13;3.10;;;;;;;;;;5077305;28;20034;-80
2021/06/16 12:13:58;;;;;;;7.80;3.08;;;;;;;;;;5091260;28;20039;-79
2021/06/16 12:16:28;;;;;;;6.68;3.25;;;;;;;;;;5092912;27;20023;-78
2021/06/16 12:18:54;;;;;;;6.60;3.42;;;;;;;;;;5078553;28;20104;-79
2021/06/16 12:21:19;;;;;;;4.15;3.50;;;;;;;;;;5077251;28;20031;-78
2021/06/16 12:23:46;;;;;;;7.05;3.22;;;;;;;;;;5077163;28;20122;-79
2021/06/16 12:26:21;;;;;;;3.60;3.13;;;;;;;;;;5076939;28;20024;-79
2021/06/16 12:28:55;;;;;;;4.53;3.10;;;;;;;;;;5094498;28;20039;-79
2021/06/16 12:31:28;;;;;;;4.75;3.40;;;;;;;;;;5095263;28;20077;-78
2021/06/16 12:36:26;;;;;;;5.78;3.70;;;;;;;;;;5094733;28;20026;-78
2021/06/16 12:38:58;;;;;;;5.50;3.78;;;;;;;;;;5077169;28;20113;-79
2021/06/16 12:41:31;;;;;;;;;;;;;;;;;;5079714;28;20023;-78
2021/06/16 12:44:26;;;;;;;3.97;2.70;;;;;;;;;;5093895;28;19907;-78
2021/06/16 12:47:07;;;;;;;4.82;3.33;;;;;;;;;;5094243;28;20042;-78
2021/06/16 12:49:56;;;;;;;4.63;3.35;;;;;;;;;;5110784;28;20050;-78
2021/06/16 12:52:29;;;;;;;5.80;3.40;;;;;;;;;;5097229;28;20646;-79
2021/06/16 12:55:05;;;;;;;5.72;3.47;;;;;;;;;;5073922;28;20031;-79
2021/06/16 12:57:40;;;;;;;4.43;2.80;;;;;;;;;;5074894;28;20106;-78
2021/06/16 13:00:10;;;;;;;4.68;3.33;;;;;;;;;;5073647;28;20036;-79
2021/06/16 13:02:35;;;;;;;6.15;3.55;;;;;;;;;;5057414;28;20043;-79
2021/06/16 13:05:05;;;;;;;4.05;3.33;;;;;;;;;;5073934;28;20358;-79
2021/06/16 13:07:47;;;;;;;5.47;3.25;;;;;;;;;;5074286;28;20032;-79
2021/06/16 13:10:25;;;;;;;6.28;3.28;;;;;;;;;;5091159;28;20036;-79
2021/06/16 13:12:55;;;;;;;4.43;2.95;;;;;;;;;;5102174;28;20044;-78
2021/06/16 13:15:20;;;;;;;5.78;3.30;;;;;;;;;;5090570;28;20098;-79
2021/06/16 13:17:53;;;;;;;6.47;5.03;;;;;;;;;;5105419;28;20119;-78
2021/06/16 13:20:38;;;;;;;8.10;4.60;;;;;;;;;;5114117;28;20031;-78
2021/06/16 13:23:13;;;;;;;9.32;4.40;;;;;;;;;;5114104;28;20023;-78
2021/06/16 13:25:41;;;;;;;5.53;3.72;;;;;;;;;;5114349;28;20051;-77
2021/06/16 13:28:06;;;;;;;5.75;3.92;;;;;;;;;;5096665;28;20045;-79
2021/06/16 13:30:40;;;;;;;5.70;3.42;;;;;;;;;;5076697;28;20032;-79
2021/06/16 13:33:06;;;;;;;6.85;4.10;;;;;;;;;;5076270;28;20027;-79
2021/06/16 13:35:31;;;;;;;5.93;4.10;;;;;;;;;;5060035;28;20034;-78
2021/06/16 13:37:57;;;;;;;5.45;3.15;;;;;;;;;;5076203;28;20035;-78
2021/06/16 13:40:23;;;;;;;6.65;3.50;;;;;;;;;;5093302;28;20074;-78
2021/06/16 13:42:50;;;;;;;4.93;3.63;;;;;;;;;;5093444;28;20069;-79
2021/06/16 13:45:16;;;;;;;4.43;3.30;;;;;;;;;;5076184;28;20157;-79
2021/06/16 13:47:41;;;;;;;6.38;4.13;;;;;;;;;;5072949;28;20123;-79
2021/06/16 13:50:07;;;;;;;5.93;3.60;;;;;;;;;;5088372;28;20036;-79
2021/06/16 13:52:33;;;;;;;5.47;3.55;;;;;;;;;;5110363;28;20039;-78
2021/06/16 13:54:58;;;;;;;5.22;3.22;;;;;;;;;;5093429;28;20063;-78
2021/06/16 13:57:24;;;;;;;4.95;3.28;;;;;;;;;;5075617;28;20032;-79
2021/06/16 13:59:50;;;;;;;4.65;2.90;;;;;;;;;;5093088;28;20031;-78
2021/06/16 14:02:15;;;;;;;14.13;10.90;;;;;;;;;;5076748;28;20035;-79
2021/06/16 14:04:41;;;;;;;9.20;8.30;;;;;;;;;;5093439;28;20115;-78
2021/06/16 14:07:06;;;;;;;9.52;7.32;;;;;;;;;;5076462;28;20041;-79
2021/06/16 14:09:32;;;;;;;10.05;7.00;;;;;;;;;;5109990;28;20040;-79
2021/06/16 14:11:58;;;;;;;8.15;5.55;;;;;;;;;;5110082;28;20043;-79
2021/06/16 14:14:23;;;;;;;6.95;4.55;;;;;;;;;;5059577;28;20023;-79
2021/06/16 14:16:48;;;;;;;8.00;5.10;;;;;;;;;;5097235;28;20039;-77
2021/06/16 14:19:14;;;;;;;4.90;3.88;;;;;;;;;;5113716;28;20046;-78
2021/06/16 14:21:39;;;;;;;6.18;3.92;;;;;;;;;;5113596;28;20050;-78
2021/06/16 14:24:05;;;;;;;6.03;4.60;;;;;;;;;;5094699;28;20041;-79
2021/06/16 14:26:31;;;;;;;7.95;3.45;;;;;;;;;;5072513;28;20027;-80
2021/06/16 14:28:57;;;;;;;7.50;3.83;;;;;;;;;;5074880;28;20074;-80
2021/06/16 14:31:23;;;;;;;7.43;3.85;;;;;;;;;;5068148;28;20036;-79
2021/06/16 14:33:48;;;;;;;6.95;3.53;;;;;;;;;;5059501;28;20027;-79
2021/06/16 14:36:16;;;;;;;5.38;4.10;;;;;;;;;;5062918;28;20481;-79
2021/06/16 14:38:41;;;;;;;5.10;3.15;;;;;;;;;;5079210;28;20036;-79
2021/06/16 14:41:07;;;;;;;5.90;3.42;;;;;;;;;;5078871;28;21683;-80
2021/06/16 14:43:32;;;;;;;8.07;3.33;;;;;;;;;;5079145;28;20085;-78
2021/06/16 14:45:58;;;;;;;5.88;3.17;;;;;;;;;;5096777;28;20061;-78
2021/06/16 14:48:24;;;;;;;6.18;3.53;;;;;;;;;;5096758;28;20027;-78
2021/06/16 14:50:50;;;;;;;4.38;3.22;;;;;;;;;;5079324;28;20401;-78